Data for 05/31/2007

Time Sea-Level Adjusted Pressure Absolute Pressure Temperature Relative Humidity Dew Point   
(mb) (inHg) (mb) (inHg) (C) (F) (%) (C) (F)
00:05 1020 30.12 849 25.07 8.1 46.5 75 4 39.2
00:10 1020 30.12 849 25.07 8.1 46.6 75 4.1 39.3
00:15 1020 30.12 849 25.07 8 46.4 76 4.1 39.4
00:20 1020 30.12 849 25.07 7.9 46.2 76 3.9 39
00:25 1020 30.12 849 25.07 7.8 46 76 3.9 39
00:30 1020 30.12 849 25.07 7.6 45.7 77 3.9 39.1
00:35 1020 30.12 849 25.07 7.4 45.4 79 4 39.2
00:40 1020 30.12 849 25.07 7.3 45.1 80 4 39.2
00:45 1020 30.12 849 25.07 7.2 45 80 4 39.2
00:50 1020 30.12 849 25.07 7 44.7 80 3.9 38.9
00:55 1020 30.12 849 25.07 7.1 44.8 79 3.7 38.7
01:00 1020 30.12 849 25.07 7.2 45 77 3.5 38.3
01:05 1020 30.12 849 25.07 7.3 45.1 75 3.2 37.8
01:10 1020 30.12 849 25.07 7.3 45.2 75 3.3 37.9
01:15 1020 30.12 849 25.07 7.4 45.3 74 3 37.4
01:20 1020 30.12 849 25.07 7.8 46 72 3.1 37.6
01:25 1020 30.12 849 25.07 7.5 45.6 73 3.1 37.5
01:30 1020 30.12 849 25.07 7.4 45.3 74 3.1 37.6
01:35 1020 30.12 849 25.07 7.2 44.9 75 3.1 37.6
01:40 1020 30.12 849 25.07 6.9 44.4 77 3.1 37.5
01:45 1020 30.12 849 25.07 6.6 44 77 2.9 37.2
01:50 1020 30.12 849 25.07 6.7 44 76 2.7 36.9
01:55 1020 30.12 849 25.07 6.9 44.5 74 2.7 36.9
02:00 1020 30.12 849 25.07 7 44.5 76 3 37.3
02:05 1020 30.12 849 25.07 6.7 44 77 2.9 37.2
02:10 1020 30.12 849 25.07 6.6 43.8 77 2.8 37.1
02:15 1020 30.12 849 25.07 6.4 43.6 78 2.9 37.1
02:20 1020 30.12 849 25.07 6.3 43.3 78 2.8 37
02:25 1020 30.12 849 25.07 6.4 43.5 78 2.8 37
02:30 1020 30.12 849 25.07 6.3 43.3 79 2.9 37.2
02:35 1020 30.12 849 25.07 6.1 43 79 2.8 37.1
02:40 1020 30.12 849 25.07 6 42.9 80 2.8 37
02:45 1020 30.12 849 25.07 6 42.8 79 2.6 36.7
02:50 1020 30.12 849 25.07 6.1 42.9 77 2.3 36.2
02:55 1020 30.12 849 25.07 6.2 43.2 76 2.3 36.1
03:00 1020 30.12 849 25.07 6.5 43.7 74 2.2 36
03:05 1020 30.12 849 25.07 6.7 44 74 2.3 36.1
03:10 1020 30.12 849 25.07 6.5 43.8 75 2.4 36.3
03:15 1020 30.12 849 25.07 6.3 43.3 76 2.4 36.4
03:20 1020 30.12 849 25.07 5.9 42.7 78 2.3 36.2
03:25 1020 30.12 849 25.07 5.8 42.4 79 2.3 36.2
03:30 1020 30.12 849 25.07 5.8 42.5 78 2.3 36.1
03:35 1020 30.12 849 25.07 5.7 42.2 79 2.3 36.1
03:40 1020 30.12 849 25.07 5.6 42.1 79 2.3 36.1
03:45 1020 30.12 849 25.07 5.6 42.1 79 2.3 36.1
03:50 1020 30.12 849 25.07 5.7 42.2 78 2.2 36
03:55 1020 30.12 849 25.07 5.9 42.5 78 2.3 36.2
04:00 1020 30.12 849 25.07 6.1 43 76 2.2 36
04:05 1020 30.12 849 25.07 6.1 43 76 2.3 36.1
04:10 1020 30.12 849 25.07 6 42.8 76 2.1 35.8
04:15 1020 30.12 849 25.07 5.9 42.6 77 2.2 36
04:20 1020 30.12 849 25.07 5.9 42.6 77 2.1 35.7
04:25 1020 30.12 849 25.07 5.7 42.3 78 2.1 35.8
04:30 1020 30.12 849 25.07 5.5 42 78 2 35.6
04:35 1020 30.12 849 25.07 5.4 41.7 78 1.9 35.3
04:40 1019 30.09 849 25.07 5.6 42.1 76 1.8 35.2
04:45 1019 30.09 849 25.07 5.7 42.3 76 1.8 35.3
04:50 1019 30.09 849 25.07 5.6 42.1 78 2.1 35.7
04:55 1019 30.09 849 25.07 5.8 42.5 76 1.9 35.5
05:00 1019 30.09 849 25.07 6.1 43 75 2.1 35.7
05:05 1019 30.09 849 25.07 6.1 43 75 2 35.6
05:10 1019 30.09 849 25.07 6.1 43 75 2.1 35.7
05:15 1019 30.09 849 25.07 6 42.8 76 2.1 35.7
05:20 1019 30.09 849 25.07 5.6 42.1 79 2.2 36
05:25 1019 30.09 849 25.07 5 41 81 2 35.6
05:30 1019 30.09 849 25.07 5 41.1 80 1.9 35.4
05:35 1019 30.09 849 25.07 5 41.1 79 1.8 35.2
05:40 1019 30.09 849 25.07 5.3 41.5 78 1.8 35.2
05:45 1019 30.09 849 25.07 5.4 41.7 78 1.9 35.3
05:50 1019 30.09 849 25.07 5.4 41.7 79 2 35.6
05:55 1019 30.09 849 25.07 5.4 41.8 77 1.8 35.2
06:00 1019 30.09 849 25.07 5.5 41.9 78 2 35.7
06:05 1020 30.12 849 25.07 5.3 41.5 79 1.9 35.4
06:10 1019 30.09 849 25.07 5.7 42.2 77 1.9 35.4
06:15 1019 30.09 849 25.07 6 42.8 76 2.1 35.8
06:20 1019 30.09 849 25.07 5.9 42.6 77 2.1 35.8
06:25 1019 30.09 849 25.07 5.8 42.4 78 2.2 35.9
06:30 1020 30.12 849 25.07 5.6 42 79 2.1 35.8
06:35 1020 30.12 849 25.07 5.5 41.9 79 2.1 35.8
06:40 1020 30.12 849 25.07 5.6 42 78 2 35.6
06:45 1020 30.12 849 25.07 6 42.9 76 2.2 35.9
06:50 1020 30.12 849 25.07 6.4 43.4 76 2.5 36.5
06:55 1020 30.12 849 25.07 6.7 44.1 74 2.4 36.4
07:00 1020 30.12 849 25.07 6.8 44.2 74 2.6 36.7
07:05 1020 30.12 849 25.07 7.2 44.9 73 2.7 36.8
07:10 1020 30.12 849 25.07 7.4 45.3 73 2.9 37.3
07:15 1020 30.12 849 25.07 7.7 45.9 73 3.2 37.8
07:20 1020 30.12 849 25.07 7.9 46.2 72 3.1 37.6
07:25 1020 30.12 849 25.07 8.3 46.9 70 3.1 37.6
07:30 1020 30.12 849 25.07 9.1 48.4 69 3.8 38.9
07:35 1020 30.12 849 25.07 9.9 49.7 66 3.9 39.1
07:40 1020 30.12 849 25.07 10.4 50.8 65 4.1 39.4
07:45 1020 30.12 849 25.07 10.6 51.1 65 4.3 39.8
07:50 1019 30.09 849 25.07 10.8 51.4 63 4.2 39.5
07:55 1020 30.12 849 25.07 10.9 51.5 63 4.2 39.6
08:00 1020 30.12 849 25.07 11.4 52.5 64 4.7 40.5
08:05 1020 30.12 849 25.07 11.1 51.9 63 4.4 40
08:10 1020 30.12 849 25.07 10.9 51.6 63 4.1 39.3
08:15 1020 30.12 849 25.07 10.8 51.5 65 4.5 40
08:20 1020 30.12 849 25.07 11.4 52.5 63 4.5 40.2
08:25 1020 30.12 849 25.07 11.4 52.5 62 4.3 39.8
08:30 1020 30.12 849 25.07 11.8 53.2 58 3.7 38.7
08:35 1020 30.12 849 25.07 11.9 53.4 58 3.9 39
08:40 1020 30.12 849 25.07 11.3 52.4 60 4 39.1
08:45 1020 30.12 849 25.07 12.2 53.9 56 3.8 38.9
08:50 1020 30.12 849 25.07 12.7 54.8 55 4 39.2
08:55 1020 30.12 849 25.07 13.2 55.7 53 3.8 38.9
09:00 1020 30.12 849 25.07 13.7 56.7 52 4.2 39.5
09:05 1020 30.12 849 25.07 13.8 56.9 53 4.5 40.2
09:10 1020 30.12 849 25.07 13.4 56.2 55 4.6 40.2
09:15 1020 30.12 849 25.07 13.1 55.5 55 4.3 39.8
09:20 1020 30.12 849 25.07 12.6 54.7 58 4.6 40.3
09:25 1020 30.12 849 25.07 12.4 54.4 58 4.4 39.9
09:30 1020 30.12 849 25.07 12.5 54.4 58 4.6 40.3
09:35 1020 30.12 849 25.07 13 55.5 55 4.2 39.6
09:40 1020 30.12 849 25.07 14 57.3 54 4.9 40.9
09:45 1020 30.12 849 25.07 14.4 57.9 53 5 40.9
09:50 1020 30.12 849 25.07 14.3 57.7 56 5.6 42.2
09:55 1020 30.12 849 25.07 13.9 56.9 56 5.3 41.6
10:00 1020 30.12 849 25.07 14 57.2 55 5.1 41.1
10:05 1020 30.12 849 25.07 14.2 57.5 56 5.5 41.9
10:10 1020 30.12 849 25.07 14.2 57.6 55 5.3 41.5
10:15 1020 30.12 849 25.07 14.4 57.9 54 5.2 41.4
10:20 1019 30.09 849 25.07 14.2 57.6 55 5.4 41.7
10:25 1019 30.09 849 25.07 14.5 58 53 5.2 41.3
10:30 1019 30.09 849 25.07 14.5 58.2 54 5.3 41.6
10:35 1019 30.09 849 25.07 14.4 57.9 56 5.7 42.3
10:40 1019 30.09 849 25.07 14.4 57.9 54 5.2 41.3
10:45 1019 30.09 849 25.07 15.1 59.1 52 5.5 41.8
10:50 1019 30.09 849 25.07 15.4 59.7 51 5.4 41.6
10:55 1019 30.09 849 25.07 15.4 59.7 52 5.7 42.3
11:00 1019 30.09 849 25.07 15.1 59.1 52 5.4 41.7
11:05 1019 30.09 849 25.07 15.6 60.1 50 5.4 41.8
11:10 1019 30.09 849 25.07 16 60.7 50 5.7 42.2
11:15 1019 30.09 848 25.04 15.9 60.7 53 6.4 43.5
11:20 1019 30.09 848 25.04 15.4 59.8 52 5.8 42.4
11:25 1019 30.09 848 25.04 15.3 59.6 52 5.7 42.2
11:30 1019 30.09 848 25.04 16 60.7 50 5.6 42
11:35 1019 30.09 848 25.04 16.4 61.5 48 5.4 41.7
11:40 1019 30.09 848 25.04 16.5 61.6 49 5.9 42.7
11:45 1019 30.09 848 25.04 16.1 61 47 4.8 40.7
11:50 1019 30.09 848 25.04 15.5 59.9 52 5.8 42.5
11:55 1019 30.09 849 25.07 16.1 61 46 4.7 40.4
12:00 1019 30.09 848 25.04 17.3 63.2 46 5.8 42.5
12:05 1019 30.09 848 25.04 17.1 62.8 46 5.5 41.9
12:10 1019 30.09 848 25.04 17.1 62.7 46 5.3 41.6
12:15 1019 30.09 848 25.04 17.2 63 46 5.7 42.2
12:20 1019 30.09 848 25.04 17 62.6 45 5.2 41.3
12:25 1019 30.09 848 25.04 16.4 61.5 46 4.8 40.7
12:30 1019 30.09 848 25.04 16.5 61.7 46 4.8 40.7
12:35 1019 30.09 848 25.04 16.7 62 47 5.3 41.6
12:40 1019 30.09 848 25.04 16.7 62.1 46 5.1 41.2
12:45 1019 30.09 848 25.04 17.1 62.8 43 4.7 40.4
12:50 1019 30.09 848 25.04 17.8 64 42 4.9 40.8
12:55 1019 30.09 848 25.04 18.4 65.1 41 5.2 41.4
13:00 1019 30.09 848 25.04 17.5 63.6 45 5.6 42
13:05 1019 30.09 848 25.04 17.2 62.9 46 5.4 41.8
13:10 1019 30.09 848 25.04 16.8 62.2 47 5.4 41.8
13:15 1019 30.09 848 25.04 17.4 63.3 45 5.5 41.8
13:20 1019 30.09 848 25.04 18 64.3 40 4.4 39.9
13:25 1019 30.09 848 25.04 18.4 65.2 40 4.6 40.4
13:30 1019 30.09 848 25.04 19 66.2 40 5.2 41.4
13:35 1019 30.09 848 25.04 18.2 64.8 42 5.2 41.3
13:40 1019 30.09 848 25.04 18.5 65.4 40 4.7 40.5
13:45 1019 30.09 848 25.04 18.8 65.8 40 5.1 41.1
13:50 1019 30.09 848 25.04 18.6 65.5 39 4.5 40.1
13:55 1019 30.09 848 25.04 18.1 64.6 39 3.9 39
14:00 1019 30.09 848 25.04 17.2 63 42 4.4 40
14:05 1019 30.09 848 25.04 17.6 63.6 41 4.4 39.9
14:10 1019 30.09 848 25.04 17.9 64.2 38 3.5 38.4
14:15 1019 30.09 848 25.04 18.7 65.7 37 4 39.2
14:20 1019 30.09 848 25.04 18.6 65.4 40 4.8 40.6
14:25 1019 30.09 848 25.04 19.3 66.7 35 3.6 38.5
14:30 1019 30.09 848 25.04 19.2 66.5 35 3.4 38.1
14:35 1019 30.09 848 25.04 18 64.3 37 3.2 37.7
14:40 1019 30.09 848 25.04 17.2 62.9 40 3.5 38.3
14:45 1019 30.09 848 25.04 17.3 63.1 39 3.3 37.9
14:50 1019 30.09 848 25.04 17.3 63.1 40 3.6 38.4
14:55 1019 30.09 848 25.04 16.7 62.1 41 3.4 38.2
15:00 1019 30.09 848 25.04 16.5 61.7 41 3.3 37.9
15:05 1019 30.09 848 25.04 16.9 62.5 39 3 37.4
15:10 1018 30.06 848 25.04 16.7 62 40 3.3 37.9
15:15 1018 30.06 848 25.04 16.6 61.9 40 3.2 37.8
15:20 1019 30.09 848 25.04 17 62.5 40 3.5 38.3
15:25 1019 30.09 848 25.04 17.6 63.6 38 3 37.4
15:30 1019 30.09 848 25.04 17.1 62.8 40 3.3 38
15:35 1019 30.09 848 25.04 16.4 61.6 41 3.1 37.6
15:40 1019 30.09 848 25.04 16.9 62.3 39 3 37.4
15:45 1018 30.06 848 25.04 17.3 63.2 38 3 37.4
15:50 1018 30.06 848 25.04 16.9 62.4 40 3.2 37.8
15:55 1018 30.06 848 25.04 16.7 62 38 2.6 36.6
16:00 1018 30.06 848 25.04 17 62.6 38 2.8 37
16:05 1018 30.06 848 25.04 17.2 63 38 3.1 37.5
16:10 1018 30.06 848 25.04 17.3 63.1 38 2.9 37.1
16:15 1018 30.06 847 25.01 17.2 63 39 3.2 37.8
16:20 1018 30.06 847 25.01 16.5 61.8 41 3.2 37.7
16:25 1018 30.06 847 25.01 16.5 61.7 43 3.8 38.9
16:30 1018 30.06 847 25.01 16.8 62.2 42 3.9 39
16:35 1018 30.06 847 25.01 16.8 62.2 43 4.3 39.7
16:40 1018 30.06 847 25.01 16.7 62.1 41 3.6 38.5
16:45 1018 30.06 847 25.01 16.7 62 41 3.6 38.4
16:50 1018 30.06 847 25.01 16.5 61.7 43 3.9 39.1
16:55 1018 30.06 847 25.01 16.5 61.7 42 3.8 38.8
17:00 1018 30.06 847 25.01 16.6 61.9 41 3.4 38.1
17:05 1018 30.06 847 25.01 16.9 62.5 41 3.7 38.7
17:10 1018 30.06 847 25.01 17 62.6 38 2.8 37.1
17:15 1018 30.06 847 25.01 17.1 62.7 39 3.2 37.7
17:20 1018 30.06 847 25.01 17.7 63.9 36 2.6 36.7
17:25 1018 30.06 847 25.01 17.5 63.6 39 3.7 38.6
17:30 1018 30.06 847 25.01 17.5 63.6 37 2.9 37.1
17:35 1018 30.06 847 25.01 18 64.4 36 2.7 36.8
17:40 1018 30.06 847 25.01 18.5 65.3 34 2.4 36.3
17:45 1018 30.06 847 25.01 18.8 65.9 35 3.3 37.9
17:50 1018 30.06 847 25.01 17.8 64 37 3.1 37.6
17:55 1018 30.06 847 25.01 17.7 63.9 37 2.8 37.1
18:00 1018 30.06 847 25.01 17.7 63.9 38 3.5 38.3
18:05 1018 30.06 847 25.01 17.6 63.7 37 2.8 37
18:10 1018 30.06 847 25.01 17.5 63.4 36 2.5 36.5
18:15 1018 30.06 847 25.01 17.4 63.3 38 3.1 37.7
18:20 1018 30.06 847 25.01 17.3 63.1 39 3.2 37.8
18:25 1018 30.06 847 25.01 17.3 63.1 37 2.7 36.8
18:30 1018 30.06 847 25.01 17.4 63.4 35 1.9 35.4
18:35 1018 30.06 847 25.01 17.4 63.2 38 3 37.5
18:40 1018 30.06 847 25.01 17.4 63.3 39 3.6 38.5
18:45 1018 30.06 847 25.01 17.5 63.4 37 2.9 37.3
18:50 1018 30.06 847 25.01 17.6 63.6 37 2.8 37
18:55 1018 30.06 847 25.01 17.6 63.7 39 3.5 38.2
19:00 1018 30.06 847 25.01 17.8 64 36 2.7 36.9
19:05 1018 30.06 847 25.01 17.7 63.9 38 3.3 37.9
19:10 1018 30.06 847 25.01 17.6 63.6 36 2.6 36.6
19:15 1018 30.06 847 25.01 17.5 63.6 38 3.2 37.7
19:20 1018 30.06 847 25.01 17.5 63.5 38 3.1 37.5
19:25 1018 30.06 847 25.01 17.5 63.6 38 3.4 38
19:30 1018 30.06 847 25.01 17.6 63.6 38 3.3 37.9
19:35 1018 30.06 847 25.01 17.6 63.6 40 4 39.2
19:40 1018 30.06 847 25.01 17.5 63.4 36 2.2 36
19:45 1018 30.06 847 25.01 17.7 63.8 40 3.9 39
19:50 1018 30.06 847 25.01 17.7 63.9 36 2.6 36.7
19:55 1018 30.06 847 25.01 17.6 63.7 41 4.2 39.5
20:00 1018 30.06 847 25.01 17.3 63.2 42 4.4 40
20:05 1018 30.06 847 25.01 17 62.7 43 4.4 40
20:10 1018 30.06 847 25.01 17 62.5 44 4.7 40.4
20:15 1018 30.06 847 25.01 17.2 63 41 3.9 39
20:20 1018 30.06 847 25.01 17.1 62.8 41 3.8 38.9
20:25 1018 30.06 847 25.01 17.1 62.7 41 3.8 38.8
20:30 1018 30.06 847 25.01 16.8 62.2 46 5.1 41.2
20:35 1018 30.06 847 25.01 16.4 61.5 50 6 42.8
20:40 1018 30.06 847 25.01 16.1 60.9 50 5.7 42.3
20:45 1018 30.06 847 25.01 15.9 60.6 51 6 42.8
20:50 1018 30.06 847 25.01 15.7 60.2 52 6 42.8
20:55 1018 30.06 847 25.01 15.4 59.7 54 6.2 43.1
21:00 1018 30.06 847 25.01 15.2 59.3 55 6.2 43.1
21:05 1018 30.06 847 25.01 14.9 58.8 56 6.4 43.5
21:10 1018 30.06 847 25.01 14.7 58.5 57 6.3 43.4
21:15 1018 30.06 847 25.01 14.5 58.1 59 6.7 44
21:20 1018 30.06 847 25.01 14.6 58.3 58 6.6 43.8
21:25 1018 30.06 847 25.01 14.7 58.5 56 6.1 42.9
21:30 1018 30.06 847 25.01 14.7 58.5 58 6.7 44
21:35 1018 30.06 847 25.01 14.2 57.6 58 6.1 43.1
21:40 1018 30.06 847 25.01 14.1 57.3 57 5.7 42.3
21:45 1018 30.06 847 25.01 14.1 57.5 57 5.7 42.3
21:50 1018 30.06 847 25.01 13.5 56.3 60 6 42.8
21:55 1018 30.06 847 25.01 13.1 55.5 59 5.4 41.7
22:00 1018 30.06 847 25.01 13 55.3 59 5.3 41.5
22:05 1018 30.06 847 25.01 12.6 54.8 58 4.7 40.4
22:10 1018 30.06 847 25.01 12.5 54.6 57 4.4 39.9
22:15 1018 30.06 847 25.01 12.7 54.9 58 4.8 40.6
22:20 1018 30.06 847 25.01 12.6 54.7 60 5.1 41.1
22:25 1018 30.06 847 25.01 12.3 54.2 60 5 40.9
22:30 1018 30.06 847 25.01 12.1 53.8 61 4.8 40.6
22:35 1018 30.06 847 25.01 12.1 53.7 60 4.7 40.4
22:40 1018 30.06 847 25.01 12 53.6 59 4.3 39.8
22:45 1018 30.06 847 25.01 12.3 54.2 55 3.6 38.5
22:50 1018 30.06 847 25.01 12.5 54.5 55 3.9 38.9
22:55 1018 30.06 847 25.01 12.4 54.3 56 3.9 39.1
23:00 1018 30.06 848 25.04 12.2 53.9 56 3.8 38.8
23:05 1018 30.06 847 25.01 12 53.6 57 3.9 39
23:10 1018 30.06 847 25.01 11.9 53.3 58 3.9 39
23:15 1018 30.06 847 25.01 11.8 53.2 58 3.7 38.7
23:20 1018 30.06 847 25.01 11.7 53.1 58 3.8 38.8
23:25 1018 30.06 847 25.01 11.6 52.8 59 3.9 38.9
23:30 1018 30.06 848 25.04 11.4 52.6 59 3.9 39
23:35 1018 30.06 848 25.04 11.5 52.6 57 3.3 37.9
23:40 1018 30.06 847 25.01 11.7 53.1 56 3.3 37.9
23:45 1018 30.06 848 25.04 11.5 52.7 59 3.7 38.7
23:50 1018 30.06 847 25.01 11.2 52.2 60 3.8 38.8
23:55 1018 30.06 847 25.01 11.1 51.9 62 4 39.2
24:00 1018 30.06 847 25.01 10.8 51.4 63 4 39.2